Time;durP1;ratioP1;P1;durP2;ratioP2;P2;SDS_P1;SDS_P2;PMS_P1;PMS_P2;Temp;Humidity;BMP_temperature;BMP_pressure;BME280_temperature;BME280_humidity;BME280_pressure;Samples;Min_cycle;Max_cycle;Signal;HPM_P1;HPM_P2
2023/12/06 00:00:06;;;;;;;51.10;13.77;;;;;;;;;;5148858;27;20078;-53
2023/12/06 00:02:34;;;;;;;36.80;11.65;;;;;;;;;;5147770;27;20034;-51
2023/12/06 00:05:01;;;;;;;28.75;10.27;;;;;;;;;;5148012;27;20038;-46
2023/12/06 00:07:27;;;;;;;25.23;9.82;;;;;;;;;;5147811;27;20015;-48
2023/12/06 00:09:54;;;;;;;24.20;8.43;;;;;;;;;;5147485;27;20299;-54
2023/12/06 00:12:21;;;;;;;20.70;8.55;;;;;;;;;;5147864;27;20034;-55
2023/12/06 00:14:48;;;;;;;22.95;7.38;;;;;;;;;;5147979;27;20023;-53
2023/12/06 00:17:15;;;;;;;21.38;7.70;;;;;;;;;;5147935;27;20063;-50
2023/12/06 00:19:41;;;;;;;18.63;7.03;;;;;;;;;;5147565;27;20031;-56
2023/12/06 00:22:08;;;;;;;11.88;6.00;;;;;;;;;;5147668;27;20047;-55
2023/12/06 00:24:35;;;;;;;15.38;6.75;;;;;;;;;;5139290;27;20307;-52
2023/12/06 00:27:01;;;;;;;18.45;6.63;;;;;;;;;;5147227;27;20023;-53
2023/12/06 00:29:29;;;;;;;16.02;6.28;;;;;;;;;;5147831;27;20262;-51
2023/12/06 00:31:58;;;;;;;12.02;5.80;;;;;;;;;;5147520;27;20109;-53
2023/12/06 00:34:25;;;;;;;17.00;5.95;;;;;;;;;;5148136;27;20079;-52
2023/12/06 00:36:52;;;;;;;12.25;5.60;;;;;;;;;;5147769;27;20078;-49
2023/12/06 00:39:18;;;;;;;13.88;6.20;;;;;;;;;;5147950;27;20026;-49
2023/12/06 00:41:45;;;;;;;13.88;5.35;;;;;;;;;;5147597;27;20023;-47
2023/12/06 00:44:12;;;;;;;14.80;5.30;;;;;;;;;;5147722;27;20068;-52
2023/12/06 00:46:42;;;;;;;16.27;5.40;;;;;;;;;;5147239;27;20015;-47
2023/12/06 00:49:10;;;;;;;14.85;5.63;;;;;;;;;;5147186;27;20031;-50
2023/12/06 00:51:37;;;;;;;12.75;5.35;;;;;;;;;;5147528;27;20056;-46
2023/12/06 00:54:06;;;;;;;11.70;4.85;;;;;;;;;;5147634;27;20313;-48
2023/12/06 00:56:33;;;;;;;11.48;4.90;;;;;;;;;;5147079;27;20030;-46
2023/12/06 00:59:00;;;;;;;11.20;5.57;;;;;;;;;;5147159;27;20015;-49
2023/12/06 01:01:28;;;;;;;12.85;5.68;;;;;;;;;;5147028;27;20026;-49
2023/12/06 01:03:54;;;;;;;13.32;5.20;;;;;;;;;;5147167;27;20083;-46
2023/12/06 01:06:21;;;;;;;16.75;5.40;;;;;;;;;;5147123;27;20228;-46
2023/12/06 01:08:49;;;;;;;14.93;5.28;;;;;;;;;;5147236;27;20082;-48
2023/12/06 01:11:16;;;;;;;13.02;6.30;;;;;;;;;;5146949;27;20253;-49
2023/12/06 01:13:44;;;;;;;14.80;6.25;;;;;;;;;;5147300;27;20067;-45
2023/12/06 01:16:10;;;;;;;15.25;6.22;;;;;;;;;;5146527;27;20026;-47
2023/12/06 01:18:37;;;;;;;10.25;5.90;;;;;;;;;;5146968;27;20042;-48
2023/12/06 01:21:04;;;;;;;12.75;5.95;;;;;;;;;;5146762;27;20046;-46
2023/12/06 01:23:30;;;;;;;12.85;5.57;;;;;;;;;;5146544;27;20042;-48
2023/12/06 01:25:57;;;;;;;14.57;5.53;;;;;;;;;;5146582;27;20030;-49
2023/12/06 01:28:24;;;;;;;12.60;5.72;;;;;;;;;;5146554;27;20029;-48
2023/12/06 01:30:51;;;;;;;17.05;5.68;;;;;;;;;;5146136;27;20211;-45
2023/12/06 01:33:17;;;;;;;14.77;5.80;;;;;;;;;;5146061;27;20023;-46
2023/12/06 01:35:44;;;;;;;15.30;4.78;;;;;;;;;;5146514;27;20018;-53
2023/12/06 01:38:11;;;;;;;12.95;4.88;;;;;;;;;;5145640;27;20128;-47
2023/12/06 01:40:39;;;;;;;13.32;4.40;;;;;;;;;;5146406;27;20231;-47
2023/12/06 01:43:07;;;;;;;8.80;4.18;;;;;;;;;;5145985;27;20019;-52
2023/12/06 01:45:33;;;;;;;11.57;4.22;;;;;;;;;;5146348;27;20027;-51
2023/12/06 01:48:01;;;;;;;8.75;3.75;;;;;;;;;;5145636;27;20027;-48
2023/12/06 01:50:28;;;;;;;9.95;4.10;;;;;;;;;;5146380;27;20199;-53
2023/12/06 01:52:57;;;;;;;10.10;3.88;;;;;;;;;;5145863;27;20082;-51
2023/12/06 01:55:24;;;;;;;10.23;3.95;;;;;;;;;;5145905;27;20031;-50
2023/12/06 01:57:51;;;;;;;14.05;4.05;;;;;;;;;;5145617;27;20015;-55
2023/12/06 02:00:18;;;;;;;6.85;4.18;;;;;;;;;;5146234;27;20027;-58
2023/12/06 02:02:45;;;;;;;8.48;3.88;;;;;;;;;;5145674;27;20031;-52
2023/12/06 02:05:14;;;;;;;10.60;3.70;;;;;;;;;;5146632;27;20083;-52
2023/12/06 02:07:42;;;;;;;8.50;4.32;;;;;;;;;;5145319;27;20014;-50
2023/12/06 02:10:09;;;;;;;10.15;3.85;;;;;;;;;;5129292;27;20083;-48
2023/12/06 02:12:36;;;;;;;15.05;4.18;;;;;;;;;;5114495;28;20044;-46
2023/12/06 02:15:04;;;;;;;11.55;3.67;;;;;;;;;;5115859;27;20357;-48
2023/12/06 02:17:32;;;;;;;9.35;3.53;;;;;;;;;;5131414;27;20291;-43
2023/12/06 02:19:59;;;;;;;20.55;3.80;;;;;;;;;;5129693;27;20043;-49
2023/12/06 02:22:26;;;;;;;11.73;3.50;;;;;;;;;;5110810;28;20036;-46
2023/12/06 02:24:54;;;;;;;14.63;3.60;;;;;;;;;;5121888;28;20027;-47
2023/12/06 02:27:22;;;;;;;15.35;3.53;;;;;;;;;;5117356;28;20043;-47
2023/12/06 02:29:50;;;;;;;9.23;3.50;;;;;;;;;;5105058;28;20043;-42
2023/12/06 02:32:16;;;;;;;8.50;3.85;;;;;;;;;;5117878;28;20023;-53
2023/12/06 02:34:43;;;;;;;12.20;7.50;;;;;;;;;;5117102;28;20027;-43
2023/12/06 02:37:13;;;;;;;48.42;13.75;;;;;;;;;;5122063;28;20019;-44
2023/12/06 02:39:42;;;;;;;26.83;13.20;;;;;;;;;;5107632;28;20099;-44
2023/12/06 02:42:11;;;;;;;24.02;11.23;;;;;;;;;;5103888;28;20020;-44
2023/12/06 02:44:43;;;;;;;18.23;9.35;;;;;;;;;;5109811;28;20043;-45
2023/12/06 02:47:10;;;;;;;23.67;9.23;;;;;;;;;;5119955;28;20016;-45
2023/12/06 02:49:36;;;;;;;23.98;11.10;;;;;;;;;;5124863;27;20026;-46
2023/12/06 02:52:03;;;;;;;19.60;10.68;;;;;;;;;;5124412;28;20016;-46
2023/12/06 02:54:30;;;;;;;15.20;7.05;;;;;;;;;;5119006;28;20031;-50
2023/12/06 02:56:57;;;;;;;11.55;5.63;;;;;;;;;;5130740;27;20022;-45
2023/12/06 02:59:23;;;;;;;8.15;4.82;;;;;;;;;;5115671;27;20023;-49
2023/12/06 03:01:50;;;;;;;7.55;5.35;;;;;;;;;;5137434;27;20057;-46
2023/12/06 03:04:17;;;;;;;19.52;7.28;;;;;;;;;;5148922;27;20051;-46
2023/12/06 03:06:43;;;;;;;15.63;7.43;;;;;;;;;;5148622;27;20019;-44
2023/12/06 03:09:10;;;;;;;15.57;9.20;;;;;;;;;;5148149;27;20079;-49
2023/12/06 03:11:37;;;;;;;19.65;8.57;;;;;;;;;;5147394;27;20023;-45
2023/12/06 03:14:04;;;;;;;15.52;6.57;;;;;;;;;;5148000;27;20023;-45
2023/12/06 03:16:31;;;;;;;12.50;7.43;;;;;;;;;;5136153;27;20015;-49
2023/12/06 03:18:58;;;;;;;14.15;7.28;;;;;;;;;;5148535;27;20068;-44
2023/12/06 03:21:25;;;;;;;13.68;7.03;;;;;;;;;;5148092;27;20083;-50
2023/12/06 03:23:52;;;;;;;11.40;6.30;;;;;;;;;;5146828;27;20091;-47
2023/12/06 03:26:18;;;;;;;13.77;6.40;;;;;;;;;;5147707;27;20391;-46
2023/12/06 03:28:45;;;;;;;10.88;5.38;;;;;;;;;;5148193;27;20078;-44
2023/12/06 03:31:12;;;;;;;7.78;4.93;;;;;;;;;;5148278;27;20137;-48
2023/12/06 03:33:38;;;;;;;6.50;4.05;;;;;;;;;;5140751;27;20024;-45
2023/12/06 03:36:05;;;;;;;6.50;3.65;;;;;;;;;;5116088;28;20065;-54
2023/12/06 03:38:32;;;;;;;6.53;3.28;;;;;;;;;;5106560;28;20036;-46
2023/12/06 03:41:00;;;;;;;6.45;2.95;;;;;;;;;;5105362;28;20312;-48
2023/12/06 03:43:27;;;;;;;5.80;3.33;;;;;;;;;;5106025;28;20043;-46
2023/12/06 03:45:54;;;;;;;7.28;2.83;;;;;;;;;;5106944;28;20058;-47
2023/12/06 03:48:20;;;;;;;5.18;2.70;;;;;;;;;;5107111;28;20172;-47
2023/12/06 03:50:47;;;;;;;4.40;2.70;;;;;;;;;;5106709;28;20012;-52
2023/12/06 03:53:14;;;;;;;4.40;2.45;;;;;;;;;;5106881;28;20212;-51
2023/12/06 03:55:40;;;;;;;5.50;2.55;;;;;;;;;;5106822;28;20073;-51
2023/12/06 03:58:08;;;;;;;4.18;2.70;;;;;;;;;;5106709;28;20027;-46
2023/12/06 04:00:35;;;;;;;4.70;2.63;;;;;;;;;;5106073;28;20047;-46
2023/12/06 04:03:01;;;;;;;3.22;2.45;;;;;;;;;;5106505;28;20031;-44
2023/12/06 04:05:31;;;;;;;5.10;2.58;;;;;;;;;;5107027;28;20216;-52
2023/12/06 04:07:57;;;;;;;3.40;2.50;;;;;;;;;;5108530;28;20300;-46
2023/12/06 04:10:24;;;;;;;4.15;2.45;;;;;;;;;;5115880;28;20028;-48
2023/12/06 04:12:53;;;;;;;4.32;2.30;;;;;;;;;;5106468;28;20012;-51
2023/12/06 04:15:19;;;;;;;6.00;2.40;;;;;;;;;;5106757;28;20032;-50
2023/12/06 04:17:46;;;;;;;4.63;1.98;;;;;;;;;;5106570;28;20335;-47
2023/12/06 04:20:13;;;;;;;4.93;2.38;;;;;;;;;;5106418;28;20047;-50
2023/12/06 04:22:40;;;;;;;6.10;2.28;;;;;;;;;;5106168;28;20031;-50
2023/12/06 04:25:07;;;;;;;3.42;2.08;;;;;;;;;;5106627;28;20208;-46
2023/12/06 04:27:34;;;;;;;3.92;2.00;;;;;;;;;;5106120;28;20026;-46
2023/12/06 04:30:00;;;;;;;2.80;1.77;;;;;;;;;;5106494;28;20035;-44
2023/12/06 04:32:27;;;;;;;2.97;2.10;;;;;;;;;;5106164;28;20015;-44
2023/12/06 04:34:55;;;;;;;3.22;2.10;;;;;;;;;;5106507;28;20028;-46
2023/12/06 04:37:22;;;;;;;4.95;2.20;;;;;;;;;;5105934;28;20091;-50
2023/12/06 04:39:48;;;;;;;3.72;2.00;;;;;;;;;;5106302;28;20032;-46
2023/12/06 04:42:16;;;;;;;4.70;2.33;;;;;;;;;;5106376;28;20020;-45
2023/12/06 04:44:42;;;;;;;3.72;2.60;;;;;;;;;;5106208;28;20304;-52
2023/12/06 04:47:09;;;;;;;5.07;2.20;;;;;;;;;;5105892;28;20024;-47
2023/12/06 04:49:36;;;;;;;5.38;2.30;;;;;;;;;;5106074;28;20016;-50
2023/12/06 04:52:03;;;;;;;6.35;2.70;;;;;;;;;;5105544;28;20073;-45
2023/12/06 04:54:29;;;;;;;4.55;2.35;;;;;;;;;;5106020;28;20028;-47
2023/12/06 04:56:56;;;;;;;3.85;2.22;;;;;;;;;;5105706;28;20019;-46
2023/12/06 04:59:23;;;;;;;3.60;2.20;;;;;;;;;;5105632;28;20074;-47
2023/12/06 05:01:49;;;;;;;6.20;2.10;;;;;;;;;;5105585;28;20028;-44
2023/12/06 05:04:16;;;;;;;3.33;2.42;;;;;;;;;;5105720;28;20204;-46
2023/12/06 05:06:43;;;;;;;3.72;2.35;;;;;;;;;;5105304;28;20024;-55
2023/12/06 05:09:10;;;;;;;4.38;2.20;;;;;;;;;;5105613;28;20047;-46
2023/12/06 05:11:37;;;;;;;3.72;2.15;;;;;;;;;;5104991;28;20027;-43
2023/12/06 05:14:04;;;;;;;4.68;2.20;;;;;;;;;;5104561;28;20087;-51
2023/12/06 05:16:30;;;;;;;5.57;2.42;;;;;;;;;;5105292;28;20023;-44
2023/12/06 05:18:57;;;;;;;2.90;2.10;;;;;;;;;;5105457;28;20016;-45
2023/12/06 05:21:24;;;;;;;4.20;2.17;;;;;;;;;;5104940;28;20351;-46
2023/12/06 05:23:51;;;;;;;3.60;2.05;;;;;;;;;;5105462;28;20028;-45
2023/12/06 05:26:18;;;;;;;3.78;1.95;;;;;;;;;;5105099;28;20051;-45
2023/12/06 05:28:44;;;;;;;3.67;2.13;;;;;;;;;;5104819;28;20096;-47
2023/12/06 05:31:11;;;;;;;7.65;2.30;;;;;;;;;;5104947;28;20257;-47
2023/12/06 05:33:38;;;;;;;5.07;2.10;;;;;;;;;;5105097;28;20079;-48
2023/12/06 05:36:07;;;;;;;2.30;1.80;;;;;;;;;;5104753;28;20087;-47
2023/12/06 05:38:34;;;;;;;3.58;2.25;;;;;;;;;;5104934;28;20028;-44
2023/12/06 05:41:01;;;;;;;4.25;2.00;;;;;;;;;;5104969;28;20016;-50
2023/12/06 05:43:27;;;;;;;2.47;1.75;;;;;;;;;;5104706;28;20066;-49
2023/12/06 05:45:54;;;;;;;4.55;2.15;;;;;;;;;;5104662;28;20065;-48
2023/12/06 05:48:21;;;;;;;2.78;1.92;;;;;;;;;;5104762;28;20212;-47
2023/12/06 05:50:48;;;;;;;6.22;2.30;;;;;;;;;;5104521;28;20024;-45
2023/12/06 05:53:14;;;;;;;3.70;2.03;;;;;;;;;;5104596;28;20083;-50
2023/12/06 05:55:41;;;;;;;3.53;1.90;;;;;;;;;;5104644;28;20079;-47
2023/12/06 05:58:08;;;;;;;4.40;2.03;;;;;;;;;;5104371;28;20077;-48
2023/12/06 06:00:35;;;;;;;3.95;1.75;;;;;;;;;;5105359;28;20324;-45
2023/12/06 06:03:02;;;;;;;4.70;1.92;;;;;;;;;;5114117;28;20091;-51
2023/12/06 06:05:29;;;;;;;3.20;2.00;;;;;;;;;;5104568;28;20213;-46
2023/12/06 06:07:57;;;;;;;2.08;1.88;;;;;;;;;;5104441;28;20024;-45
2023/12/06 06:10:24;;;;;;;3.22;1.80;;;;;;;;;;5104772;28;20261;-45
2023/12/06 06:12:51;;;;;;;3.20;1.88;;;;;;;;;;5104341;28;20020;-47
2023/12/06 06:15:17;;;;;;;4.43;2.10;;;;;;;;;;5104721;28;20040;-55
2023/12/06 06:17:44;;;;;;;4.70;2.25;;;;;;;;;;5104274;28;20023;-47
2023/12/06 06:20:11;;;;;;;6.28;1.83;;;;;;;;;;5104332;28;20312;-45
2023/12/06 06:22:37;;;;;;;4.15;2.28;;;;;;;;;;5104270;28;20062;-51
2023/12/06 06:25:04;;;;;;;6.40;2.50;;;;;;;;;;5104088;28;20039;-46
2023/12/06 06:27:31;;;;;;;5.88;2.50;;;;;;;;;;5104266;28;20028;-45
2023/12/06 06:29:58;;;;;;;3.67;1.90;;;;;;;;;;5104457;28;20235;-48
2023/12/06 06:32:25;;;;;;;5.13;2.20;;;;;;;;;;5104410;28;20023;-52
2023/12/06 06:34:51;;;;;;;4.30;2.55;;;;;;;;;;5104774;28;20299;-50
2023/12/06 06:37:18;;;;;;;5.32;2.40;;;;;;;;;;5103999;28;20032;-52
2023/12/06 06:39:45;;;;;;;5.10;2.38;;;;;;;;;;5104472;28;20027;-54
2023/12/06 06:42:11;;;;;;;4.25;2.10;;;;;;;;;;5104006;28;20032;-50
2023/12/06 06:44:40;;;;;;;6.88;2.00;;;;;;;;;;5103921;28;20032;-50
2023/12/06 06:47:07;;;;;;;3.42;2.10;;;;;;;;;;5104064;28;20312;-51
2023/12/06 06:49:34;;;;;;;4.22;2.15;;;;;;;;;;5104145;28;20032;-52
2023/12/06 06:52:01;;;;;;;4.25;2.10;;;;;;;;;;5103926;28;20204;-54
2023/12/06 06:54:27;;;;;;;3.45;2.20;;;;;;;;;;5104359;28;20019;-51
2023/12/06 06:56:54;;;;;;;4.18;2.17;;;;;;;;;;5103890;28;20035;-51
2023/12/06 06:59:21;;;;;;;4.43;1.85;;;;;;;;;;5104042;28;20050;-51
2023/12/06 07:01:48;;;;;;;2.88;1.75;;;;;;;;;;5103939;28;20069;-57
2023/12/06 07:04:14;;;;;;;3.05;2.10;;;;;;;;;;5103880;28;20099;-53
2023/12/06 07:06:41;;;;;;;4.13;1.90;;;;;;;;;;5103688;28;20142;-50
2023/12/06 07:09:08;;;;;;;4.05;1.70;;;;;;;;;;5104076;28;20330;-45
2023/12/06 07:11:35;;;;;;;4.32;1.90;;;;;;;;;;5103666;28;20036;-44
2023/12/06 07:14:03;;;;;;;3.00;1.63;;;;;;;;;;5103690;28;20023;-52
2023/12/06 07:16:31;;;;;;;3.25;1.98;;;;;;;;;;5103626;28;20212;-52
2023/12/06 07:18:58;;;;;;;2.40;1.80;;;;;;;;;;5103921;28;20077;-50
2023/12/06 07:21:25;;;;;;;3.33;1.95;;;;;;;;;;5103348;28;20036;-51
2023/12/06 07:23:54;;;;;;;2.50;1.65;;;;;;;;;;5103703;28;20035;-43
2023/12/06 07:26:20;;;;;;;3.47;1.80;;;;;;;;;;5103672;28;20249;-46
2023/12/06 07:28:48;;;;;;;3.85;1.77;;;;;;;;;;5103358;28;20024;-43
2023/12/06 07:31:16;;;;;;;5.18;1.90;;;;;;;;;;5103613;28;20362;-44
2023/12/06 07:33:43;;;;;;;3.33;1.83;;;;;;;;;;5103475;28;20036;-44
2023/12/06 07:36:11;;;;;;;3.92;1.98;;;;;;;;;;5104760;28;20020;-43
2023/12/06 07:38:39;;;;;;;2.88;1.77;;;;;;;;;;5107232;28;20027;-45
2023/12/06 07:41:05;;;;;;;2.53;1.63;;;;;;;;;;5107040;28;20024;-43
2023/12/06 07:43:32;;;;;;;2.72;1.60;;;;;;;;;;5107015;28;20031;-44
2023/12/06 07:45:59;;;;;;;3.38;1.85;;;;;;;;;;5106889;28;20220;-47
2023/12/06 07:48:26;;;;;;;2.97;1.73;;;;;;;;;;5107091;28;20205;-43
2023/12/06 07:50:53;;;;;;;2.13;1.52;;;;;;;;;;5106692;28;20031;-44
2023/12/06 07:53:20;;;;;;;4.68;2.10;;;;;;;;;;5106770;28;20035;-42
2023/12/06 07:55:47;;;;;;;3.53;2.10;;;;;;;;;;5107094;28;20052;-45
2023/12/06 07:58:14;;;;;;;3.60;1.73;;;;;;;;;;5106537;28;20024;-45
2023/12/06 08:00:41;;;;;;;6.45;2.10;;;;;;;;;;5106656;28;20039;-52
2023/12/06 08:03:08;;;;;;;3.38;2.00;;;;;;;;;;5106816;28;20032;-52
2023/12/06 08:05:35;;;;;;;5.78;2.10;;;;;;;;;;5098033;28;20024;-53
2023/12/06 08:08:02;;;;;;;3.83;2.03;;;;;;;;;;5106516;28;20016;-48
2023/12/06 08:10:31;;;;;;;4.57;2.17;;;;;;;;;;5106946;28;20024;-48
2023/12/06 08:12:57;;;;;;;5.25;2.05;;;;;;;;;;5106360;28;20177;-48
2023/12/06 08:15:26;;;;;;;2.92;1.95;;;;;;;;;;5107243;28;20031;-50
2023/12/06 08:17:53;;;;;;;4.32;1.80;;;;;;;;;;5106289;28;20032;-54
2023/12/06 08:20:19;;;;;;;3.63;2.00;;;;;;;;;;5105927;28;20040;-52
2023/12/06 08:22:46;;;;;;;3.15;1.80;;;;;;;;;;5106633;28;20087;-51
2023/12/06 08:25:13;;;;;;;3.40;1.90;;;;;;;;;;5106817;28;20405;-52
2023/12/06 08:27:40;;;;;;;3.47;1.92;;;;;;;;;;5106007;28;20020;-52
2023/12/06 08:30:07;;;;;;;3.08;1.88;;;;;;;;;;5106667;28;20341;-47
2023/12/06 08:32:33;;;;;;;5.50;1.98;;;;;;;;;;5106142;28;20028;-53
2023/12/06 08:35:03;;;;;;;4.20;2.13;;;;;;;;;;5106311;28;20189;-50
2023/12/06 08:37:31;;;;;;;4.78;1.92;;;;;;;;;;5106075;28;20340;-48
2023/12/06 08:39:57;;;;;;;3.90;1.90;;;;;;;;;;5106371;28;20212;-50
2023/12/06 08:42:24;;;;;;;5.43;2.40;;;;;;;;;;5105871;28;20026;-45
2023/12/06 08:44:53;;;;;;;3.83;2.17;;;;;;;;;;5106146;28;20300;-54
2023/12/06 08:47:20;;;;;;;3.50;2.00;;;;;;;;;;5105679;28;20324;-48
2023/12/06 08:49:47;;;;;;;4.68;2.10;;;;;;;;;;5105791;28;20331;-46
2023/12/06 08:52:15;;;;;;;3.85;2.03;;;;;;;;;;5105949;28;20024;-47
2023/12/06 08:54:42;;;;;;;10.35;2.35;;;;;;;;;;5106017;28;20327;-54
2023/12/06 08:57:09;;;;;;;5.93;2.25;;;;;;;;;;5105551;28;20028;-51
2023/12/06 08:59:35;;;;;;;4.32;2.13;;;;;;;;;;5105838;28;20048;-53
2023/12/06 09:02:02;;;;;;;3.78;1.75;;;;;;;;;;5105387;28;20020;-50
2023/12/06 09:04:29;;;;;;;5.50;2.15;;;;;;;;;;5105627;28;20035;-52
2023/12/06 09:06:56;;;;;;;2.67;2.00;;;;;;;;;;5105497;28;20043;-55
2023/12/06 09:09:22;;;;;;;4.45;2.00;;;;;;;;;;5119510;28;20316;-53
2023/12/06 09:11:49;;;;;;;4.35;2.10;;;;;;;;;;5125694;28;20024;-54
2023/12/06 09:14:16;;;;;;;8.50;2.40;;;;;;;;;;5126121;28;20196;-55
2023/12/06 09:16:42;;;;;;;5.38;2.17;;;;;;;;;;5125797;28;20024;-53
2023/12/06 09:19:09;;;;;;;6.18;2.70;;;;;;;;;;5125650;28;20024;-56
2023/12/06 09:21:41;;;;;;;4.43;2.70;;;;;;;;;;5117158;28;20040;-53
2023/12/06 09:24:08;;;;;;;;;;;;;;;;;;5126149;28;20035;-54
2023/12/06 09:26:35;;;;;;;5.65;3.47;;;;;;;;;;5125301;28;19900;-56
2023/12/06 09:29:02;;;;;;;8.23;3.63;;;;;;;;;;5125679;28;20027;-56
2023/12/06 09:31:28;;;;;;;6.40;3.70;;;;;;;;;;5125535;28;20032;-52
2023/12/06 09:33:55;;;;;;;6.00;3.03;;;;;;;;;;5125309;28;20034;-52
2023/12/06 09:36:22;;;;;;;8.70;2.90;;;;;;;;;;5125369;28;20124;-51
2023/12/06 09:38:48;;;;;;;7.00;2.95;;;;;;;;;;5125483;28;20110;-52
2023/12/06 09:41:18;;;;;;;6.50;2.97;;;;;;;;;;5125211;28;20027;-57
2023/12/06 09:43:45;;;;;;;9.88;2.83;;;;;;;;;;5125261;28;20229;-52
2023/12/06 09:46:15;;;;;;;10.20;2.67;;;;;;;;;;5124885;28;20096;-56
2023/12/06 09:48:42;;;;;;;5.22;2.40;;;;;;;;;;5124919;28;20324;-53
2023/12/06 09:51:09;;;;;;;6.20;2.40;;;;;;;;;;5124910;28;20247;-53
2023/12/06 09:53:36;;;;;;;4.70;2.10;;;;;;;;;;5125205;28;20031;-53
2023/12/06 09:56:03;;;;;;;6.85;2.30;;;;;;;;;;5124880;28;20030;-53
2023/12/06 09:58:30;;;;;;;4.45;2.40;;;;;;;;;;5124326;28;20044;-52
2023/12/06 10:00:57;;;;;;;3.70;2.05;;;;;;;;;;5124944;28;20032;-52
2023/12/06 10:03:24;;;;;;;5.05;2.22;;;;;;;;;;5126411;28;20042;-45
2023/12/06 10:05:57;;;;;;;5.10;2.03;;;;;;;;;;5145303;27;20019;-53
2023/12/06 10:08:24;;;;;;;4.50;1.98;;;;;;;;;;5145363;27;20315;-52
2023/12/06 10:11:00;;;;;;;4.35;2.00;;;;;;;;;;5145067;27;20331;-45
2023/12/06 10:13:37;;;;;;;4.80;1.98;;;;;;;;;;5129074;27;20020;-48
2023/12/06 10:16:13;;;;;;;5.32;1.77;;;;;;;;;;5111627;28;20089;-52
2023/12/06 10:18:40;;;;;;;6.03;1.88;;;;;;;;;;5122610;28;20023;-55
2023/12/06 10:21:07;;;;;;;4.90;1.80;;;;;;;;;;5124515;28;20220;-53
2023/12/06 10:23:36;;;;;;;7.32;2.00;;;;;;;;;;5124430;28;20093;-56
2023/12/06 10:26:07;;;;;;;7.00;1.88;;;;;;;;;;5124568;28;20043;-53
2023/12/06 10:28:37;;;;;;;6.57;1.80;;;;;;;;;;5124827;28;20051;-55
2023/12/06 10:31:05;;;;;;;6.18;1.83;;;;;;;;;;5124750;28;20046;-49
2023/12/06 10:33:32;;;;;;;5.40;1.85;;;;;;;;;;5124611;28;20043;-49
2023/12/06 10:36:00;;;;;;;8.70;1.95;;;;;;;;;;5124748;28;20032;-47
2023/12/06 10:38:29;;;;;;;5.38;1.60;;;;;;;;;;5124457;28;20038;-48
2023/12/06 10:40:58;;;;;;;6.03;1.83;;;;;;;;;;5124395;28;20065;-48
2023/12/06 10:43:25;;;;;;;10.27;2.10;;;;;;;;;;5124280;28;20368;-46
2023/12/06 10:45:52;;;;;;;13.50;1.83;;;;;;;;;;5124605;28;20038;-47
2023/12/06 10:48:20;;;;;;;6.97;1.90;;;;;;;;;;5124403;28;20278;-45
2023/12/06 10:50:47;;;;;;;4.82;1.90;;;;;;;;;;5124092;28;20055;-49
2023/12/06 10:53:14;;;;;;;9.30;2.03;;;;;;;;;;5124627;28;20290;-48
2023/12/06 10:55:42;;;;;;;9.02;1.70;;;;;;;;;;5124305;28;20090;-47
2023/12/06 10:58:09;;;;;;;9.75;1.92;;;;;;;;;;5124230;28;20062;-46
2023/12/06 11:00:36;;;;;;;8.40;2.88;;;;;;;;;;5127325;28;20031;-55
2023/12/06 11:03:03;;;;;;;12.02;4.00;;;;;;;;;;5144778;28;20051;-52
2023/12/06 11:05:38;;;;;;;8.23;2.83;;;;;;;;;;5141578;28;20038;-50
2023/12/06 11:08:05;;;;;;;9.18;2.50;;;;;;;;;;5127888;28;20932;-44
2023/12/06 11:10:32;;;;;;;6.90;2.35;;;;;;;;;;5115115;28;20039;-53
2023/12/06 11:13:19;;;;;;;9.32;2.30;;;;;;;;;;5120279;27;20294;-50
2023/12/06 11:16:07;;;;;;;8.40;2.17;;;;;;;;;;5123100;28;20186;-46
2023/12/06 11:18:44;;;;;;;16.10;3.03;;;;;;;;;;5121870;28;20024;-45
2023/12/06 11:21:14;;;;;;;20.35;3.63;;;;;;;;;;5122295;28;20040;-44
2023/12/06 11:23:49;;;;;;;14.18;3.08;;;;;;;;;;5117841;28;20032;-46
2023/12/06 11:26:16;;;;;;;24.15;4.40;;;;;;;;;;5122502;28;20034;-52
2023/12/06 11:28:43;;;;;;;22.02;3.88;;;;;;;;;;5124506;28;20039;-50
2023/12/06 11:31:13;;;;;;;24.30;4.07;;;;;;;;;;5119697;28;20204;-47
2023/12/06 11:33:54;;;;;;;17.55;4.03;;;;;;;;;;5121849;27;20032;-58
2023/12/06 11:36:24;;;;;;;23.95;4.15;;;;;;;;;;5147113;27;20031;-55
2023/12/06 11:38:50;;;;;;;24.70;7.40;;;;;;;;;;5148414;27;20035;-44
2023/12/06 11:41:17;;;;;;;17.67;6.05;;;;;;;;;;5148466;27;20038;-46
2023/12/06 11:43:53;;;;;;;23.48;7.03;;;;;;;;;;5148512;27;20023;-47
2023/12/06 11:46:23;;;;;;;17.48;6.72;;;;;;;;;;5148925;27;20050;-49
2023/12/06 11:48:53;;;;;;;21.73;7.75;;;;;;;;;;5147686;27;20019;-51
2023/12/06 11:51:25;;;;;;;31.42;8.82;;;;;;;;;;5146781;27;20011;-49
2023/12/06 11:53:52;;;;;;;25.55;7.43;;;;;;;;;;5148458;27;20023;-49
2023/12/06 11:56:26;;;;;;;23.67;6.53;;;;;;;;;;5148804;27;20030;-47
2023/12/06 11:58:53;;;;;;;24.50;6.03;;;;;;;;;;5149031;27;20027;-46
2023/12/06 12:01:20;;;;;;;21.98;5.47;;;;;;;;;;5148625;27;20072;-47
2023/12/06 12:03:48;;;;;;;37.70;6.22;;;;;;;;;;5148495;27;20290;-47
2023/12/06 12:06:15;;;;;;;38.75;6.93;;;;;;;;;;5148392;27;20047;-46
2023/12/06 12:08:43;;;;;;;44.80;6.68;;;;;;;;;;5148495;27;20028;-47
2023/12/06 12:11:10;;;;;;;29.80;5.85;;;;;;;;;;5147962;27;20019;-50
2023/12/06 12:13:38;;;;;;;31.77;6.15;;;;;;;;;;5148549;27;20232;-49
2023/12/06 12:16:05;;;;;;;28.05;5.55;;;;;;;;;;5148223;27;20334;-47
2023/12/06 12:18:32;;;;;;;25.50;4.82;;;;;;;;;;5148515;27;20019;-48
2023/12/06 12:20:59;;;;;;;18.98;5.13;;;;;;;;;;5147893;27;20050;-50
2023/12/06 12:23:28;;;;;;;15.52;4.40;;;;;;;;;;5148018;27;20038;-48
2023/12/06 12:25:54;;;;;;;18.95;4.63;;;;;;;;;;5148091;27;20030;-47
2023/12/06 12:28:22;;;;;;;15.30;4.68;;;;;;;;;;5147985;27;20008;-48
2023/12/06 12:30:52;;;;;;;22.40;4.68;;;;;;;;;;5147694;27;20023;-51
2023/12/06 12:33:19;;;;;;;11.50;4.10;;;;;;;;;;5147962;27;20026;-47
2023/12/06 12:35:46;;;;;;;13.40;3.80;;;;;;;;;;5147970;27;20090;-55
2023/12/06 12:38:12;;;;;;;10.07;3.97;;;;;;;;;;5147124;27;20364;-52
2023/12/06 12:40:41;;;;;;;11.60;4.15;;;;;;;;;;5147384;27;20031;-49
2023/12/06 12:43:08;;;;;;;11.35;3.50;;;;;;;;;;5147575;27;20063;-52
2023/12/06 12:45:35;;;;;;;10.80;3.63;;;;;;;;;;5139305;27;20093;-54
2023/12/06 12:48:02;;;;;;;8.60;3.72;;;;;;;;;;5147548;27;20053;-53
2023/12/06 12:50:31;;;;;;;11.23;3.40;;;;;;;;;;5147480;27;20049;-49
2023/12/06 12:52:57;;;;;;;8.43;3.10;;;;;;;;;;5146490;27;20054;-58
2023/12/06 12:55:26;;;;;;;10.05;3.55;;;;;;;;;;5147176;27;20343;-51
2023/12/06 12:57:53;;;;;;;9.25;3.35;;;;;;;;;;5146652;27;20030;-54
2023/12/06 13:00:23;;;;;;;8.48;3.35;;;;;;;;;;5147711;27;20052;-52
2023/12/06 13:02:53;;;;;;;14.90;3.50;;;;;;;;;;5146858;27;20068;-51
2023/12/06 13:05:21;;;;;;;10.15;2.85;;;;;;;;;;5147599;27;20039;-53
2023/12/06 13:07:52;;;;;;;10.55;3.78;;;;;;;;;;5146824;27;20019;-47
2023/12/06 13:10:18;;;;;;;7.00;3.13;;;;;;;;;;5147150;27;20200;-48
2023/12/06 13:12:45;;;;;;;11.20;3.50;;;;;;;;;;5146848;27;20015;-53
2023/12/06 13:15:12;;;;;;;8.18;3.10;;;;;;;;;;5146919;27;20035;-52
2023/12/06 13:17:39;;;;;;;8.73;3.28;;;;;;;;;;5147128;27;20023;-52
2023/12/06 13:20:08;;;;;;;7.60;3.00;;;;;;;;;;5147355;27;20175;-45
2023/12/06 13:22:34;;;;;;;9.32;2.83;;;;;;;;;;5146443;27;20273;-49
2023/12/06 13:25:03;;;;;;;8.50;3.00;;;;;;;;;;5147199;27;20053;-49
2023/12/06 13:27:30;;;;;;;5.78;2.72;;;;;;;;;;5146901;27;20057;-52
2023/12/06 13:29:59;;;;;;;8.18;2.45;;;;;;;;;;5147258;27;20066;-52
2023/12/06 13:32:25;;;;;;;5.80;2.55;;;;;;;;;;5146673;27;20022;-52
2023/12/06 13:34:52;;;;;;;5.93;2.63;;;;;;;;;;5146231;27;20027;-55
2023/12/06 13:37:19;;;;;;;7.57;2.80;;;;;;;;;;5146414;27;20039;-48
2023/12/06 13:39:46;;;;;;;5.78;2.95;;;;;;;;;;5146752;27;20027;-52
2023/12/06 13:42:14;;;;;;;8.98;3.03;;;;;;;;;;5146845;27;20124;-53
2023/12/06 13:44:41;;;;;;;8.20;2.78;;;;;;;;;;5146994;27;20315;-52
2023/12/06 13:47:08;;;;;;;7.20;2.92;;;;;;;;;;5146729;27;20023;-53
2023/12/06 13:49:35;;;;;;;7.55;2.63;;;;;;;;;;5138481;27;20016;-52
2023/12/06 13:52:02;;;;;;;4.43;2.38;;;;;;;;;;5146587;27;20023;-55
2023/12/06 13:54:29;;;;;;;5.97;2.83;;;;;;;;;;5146486;27;20061;-52
2023/12/06 13:56:56;;;;;;;5.78;2.78;;;;;;;;;;5146484;27;20015;-55
2023/12/06 13:59:22;;;;;;;7.60;2.90;;;;;;;;;;5146631;27;20095;-55
2023/12/06 14:01:50;;;;;;;4.80;2.60;;;;;;;;;;5146485;27;20060;-54
2023/12/06 14:04:18;;;;;;;7.60;2.80;;;;;;;;;;5146262;27;20366;-54
2023/12/06 14:06:45;;;;;;;10.18;2.75;;;;;;;;;;5146367;27;20275;-49
2023/12/06 14:09:13;;;;;;;5.47;2.40;;;;;;;;;;5146465;27;20026;-52
2023/12/06 14:11:40;;;;;;;6.80;2.85;;;;;;;;;;5146368;27;20134;-52
2023/12/06 14:14:07;;;;;;;7.05;2.55;;;;;;;;;;5146427;27;20204;-50
2023/12/06 14:16:34;;;;;;;6.93;2.58;;;;;;;;;;5146184;27;20369;-52
2023/12/06 14:19:01;;;;;;;5.47;2.33;;;;;;;;;;5146115;27;20082;-49
2023/12/06 14:21:27;;;;;;;6.80;2.78;;;;;;;;;;5145972;27;20295;-53
2023/12/06 14:23:54;;;;;;;7.50;2.40;;;;;;;;;;5146197;27;20061;-51
2023/12/06 14:26:21;;;;;;;6.40;2.58;;;;;;;;;;5146169;27;20019;-52
2023/12/06 14:28:51;;;;;;;6.45;2.70;;;;;;;;;;5145945;27;20024;-53
2023/12/06 14:31:17;;;;;;;5.40;2.67;;;;;;;;;;5145644;27;20018;-52
2023/12/06 14:33:45;;;;;;;3.92;2.30;;;;;;;;;;5145952;28;20015;-51
2023/12/06 14:36:11;;;;;;;7.93;2.75;;;;;;;;;;5145087;28;20027;-48
2023/12/06 14:38:38;;;;;;;4.47;2.40;;;;;;;;;;5145661;28;20080;-50